sensor_id;sensor_type;location;lat;lon;timestamp;P1;durP1;ratioP1;P2;durP2;ratioP2
30874;SDS011;17581;43.222;27.924;2023-06-01T00:02:25;14.63;;;7.95;;
30874;SDS011;17581;43.222;27.924;2023-06-01T00:04:51;22.95;;;7.68;;
30874;SDS011;17581;43.222;27.924;2023-06-01T00:07:17;19.20;;;8.80;;
30874;SDS011;17581;43.222;27.924;2023-06-01T00:09:42;18.83;;;8.25;;
30874;SDS011;17581;43.222;27.924;2023-06-01T00:12:08;13.35;;;7.82;;
30874;SDS011;17581;43.222;27.924;2023-06-01T00:14:34;19.35;;;8.23;;
30874;SDS011;17581;43.222;27.924;2023-06-01T00:17:00;14.10;;;7.70;;
30874;SDS011;17581;43.222;27.924;2023-06-01T00:19:27;18.48;;;8.43;;
30874;SDS011;17581;43.222;27.924;2023-06-01T00:21:54;18.17;;;7.75;;
30874;SDS011;17581;43.222;27.924;2023-06-01T00:24:20;14.85;;;7.72;;
30874;SDS011;17581;43.222;27.924;2023-06-01T00:26:46;14.50;;;8.27;;
30874;SDS011;17581;43.222;27.924;2023-06-01T00:29:12;17.70;;;10.23;;
30874;SDS011;17581;43.222;27.924;2023-06-01T00:31:38;20.92;;;10.43;;
30874;SDS011;17581;43.222;27.924;2023-06-01T00:34:04;21.15;;;9.73;;
30874;SDS011;17581;43.222;27.924;2023-06-01T00:36:30;19.42;;;9.80;;
30874;SDS011;17581;43.222;27.924;2023-06-01T00:38:57;17.17;;;8.93;;
30874;SDS011;17581;43.222;27.924;2023-06-01T00:41:27;18.45;;;10.35;;
30874;SDS011;17581;43.222;27.924;2023-06-01T00:43:53;21.65;;;11.43;;
30874;SDS011;17581;43.222;27.924;2023-06-01T00:46:19;29.35;;;10.88;;
30874;SDS011;17581;43.222;27.924;2023-06-01T00:48:44;20.35;;;10.60;;
30874;SDS011;17581;43.222;27.924;2023-06-01T00:51:11;17.00;;;9.50;;
30874;SDS011;17581;43.222;27.924;2023-06-01T00:53:37;18.30;;;10.00;;
30874;SDS011;17581;43.222;27.924;2023-06-01T00:56:03;19.35;;;8.80;;
30874;SDS011;17581;43.222;27.924;2023-06-01T00:58:29;17.27;;;8.50;;
30874;SDS011;17581;43.222;27.924;2023-06-01T01:00:55;15.95;;;9.48;;
30874;SDS011;17581;43.222;27.924;2023-06-01T01:03:21;18.98;;;10.15;;
30874;SDS011;17581;43.222;27.924;2023-06-01T01:05:46;19.13;;;8.82;;
30874;SDS011;17581;43.222;27.924;2023-06-01T01:08:13;18.08;;;10.38;;
30874;SDS011;17581;43.222;27.924;2023-06-01T01:11:15;17.25;;;8.52;;
30874;SDS011;17581;43.222;27.924;2023-06-01T01:13:56;15.73;;;8.43;;
30874;SDS011;17581;43.222;27.924;2023-06-01T01:16:39;19.38;;;8.52;;
30874;SDS011;17581;43.222;27.924;2023-06-01T01:19:17;13.07;;;8.18;;
30874;SDS011;17581;43.222;27.924;2023-06-01T01:27:45;13.77;;;9.73;;
30874;SDS011;17581;43.222;27.924;2023-06-01T01:30:31;15.75;;;8.20;;
30874;SDS011;17581;43.222;27.924;2023-06-01T01:33:01;15.15;;;8.98;;
30874;SDS011;17581;43.222;27.924;2023-06-01T01:35:28;18.05;;;9.75;;
30874;SDS011;17581;43.222;27.924;2023-06-01T01:37:55;27.27;;;9.43;;
30874;SDS011;17581;43.222;27.924;2023-06-01T01:40:21;18.27;;;10.32;;
30874;SDS011;17581;43.222;27.924;2023-06-01T01:42:47;19.48;;;11.05;;
30874;SDS011;17581;43.222;27.924;2023-06-01T01:45:15;31.30;;;10.85;;
30874;SDS011;17581;43.222;27.924;2023-06-01T01:50:50;20.55;;;10.23;;
30874;SDS011;17581;43.222;27.924;2023-06-01T01:53:19;21.08;;;11.10;;
30874;SDS011;17581;43.222;27.924;2023-06-01T01:55:48;30.70;;;12.00;;
30874;SDS011;17581;43.222;27.924;2023-06-01T01:58:16;23.40;;;11.07;;
30874;SDS011;17581;43.222;27.924;2023-06-01T02:00:42;26.00;;;11.95;;
30874;SDS011;17581;43.222;27.924;2023-06-01T02:03:15;39.58;;;10.88;;
30874;SDS011;17581;43.222;27.924;2023-06-01T02:05:42;30.40;;;12.00;;
30874;SDS011;17581;43.222;27.924;2023-06-01T02:08:07;20.17;;;11.68;;
30874;SDS011;17581;43.222;27.924;2023-06-01T02:10:33;33.58;;;12.65;;
30874;SDS011;17581;43.222;27.924;2023-06-01T02:12:59;30.17;;;13.18;;
30874;SDS011;17581;43.222;27.924;2023-06-01T02:15:24;37.28;;;15.13;;
30874;SDS011;17581;43.222;27.924;2023-06-01T02:17:50;33.15;;;17.08;;
30874;SDS011;17581;43.222;27.924;2023-06-01T02:20:16;26.90;;;17.10;;
30874;SDS011;17581;43.222;27.924;2023-06-01T02:22:42;33.25;;;16.60;;
30874;SDS011;17581;43.222;27.924;2023-06-01T02:25:08;28.08;;;15.45;;
30874;SDS011;17581;43.222;27.924;2023-06-01T02:27:33;22.52;;;14.50;;
30874;SDS011;17581;43.222;27.924;2023-06-01T02:29:59;35.90;;;15.63;;
30874;SDS011;17581;43.222;27.924;2023-06-01T02:32:24;23.60;;;14.02;;
30874;SDS011;17581;43.222;27.924;2023-06-01T02:34:51;31.58;;;15.50;;
30874;SDS011;17581;43.222;27.924;2023-06-01T02:37:17;77.68;;;19.33;;
30874;SDS011;17581;43.222;27.924;2023-06-01T02:39:42;40.17;;;15.10;;
30874;SDS011;17581;43.222;27.924;2023-06-01T02:42:07;23.85;;;13.05;;
30874;SDS011;17581;43.222;27.924;2023-06-01T02:44:33;28.60;;;13.57;;
30874;SDS011;17581;43.222;27.924;2023-06-01T02:46:58;40.88;;;13.60;;
30874;SDS011;17581;43.222;27.924;2023-06-01T02:49:24;19.05;;;12.80;;
30874;SDS011;17581;43.222;27.924;2023-06-01T02:51:49;28.38;;;12.15;;
30874;SDS011;17581;43.222;27.924;2023-06-01T02:54:15;33.45;;;12.73;;
30874;SDS011;17581;43.222;27.924;2023-06-01T02:56:40;27.05;;;12.02;;
30874;SDS011;17581;43.222;27.924;2023-06-01T02:59:05;23.38;;;15.00;;
30874;SDS011;17581;43.222;27.924;2023-06-01T03:01:31;30.02;;;14.52;;
30874;SDS011;17581;43.222;27.924;2023-06-01T03:04:00;24.55;;;14.77;;
30874;SDS011;17581;43.222;27.924;2023-06-01T03:06:29;31.85;;;15.82;;
30874;SDS011;17581;43.222;27.924;2023-06-01T03:08:57;27.25;;;16.85;;
30874;SDS011;17581;43.222;27.924;2023-06-01T03:11:23;31.75;;;17.08;;
30874;SDS011;17581;43.222;27.924;2023-06-01T03:13:49;28.63;;;16.23;;
30874;SDS011;17581;43.222;27.924;2023-06-01T03:16:15;37.88;;;15.73;;
30874;SDS011;17581;43.222;27.924;2023-06-01T03:18:41;35.38;;;18.70;;
30874;SDS011;17581;43.222;27.924;2023-06-01T03:21:07;40.78;;;16.35;;
30874;SDS011;17581;43.222;27.924;2023-06-01T03:23:33;25.85;;;16.17;;
30874;SDS011;17581;43.222;27.924;2023-06-01T03:25:58;33.15;;;17.77;;
30874;SDS011;17581;43.222;27.924;2023-06-01T03:28:24;40.25;;;19.63;;
30874;SDS011;17581;43.222;27.924;2023-06-01T03:30:50;39.45;;;16.10;;
30874;SDS011;17581;43.222;27.924;2023-06-01T03:33:16;40.75;;;20.85;;
30874;SDS011;17581;43.222;27.924;2023-06-01T03:35:42;42.72;;;20.63;;
30874;SDS011;17581;43.222;27.924;2023-06-01T03:38:09;43.58;;;21.40;;
30874;SDS011;17581;43.222;27.924;2023-06-01T03:40:35;46.90;;;24.65;;
30874;SDS011;17581;43.222;27.924;2023-06-01T03:43:00;46.63;;;23.90;;
30874;SDS011;17581;43.222;27.924;2023-06-01T03:45:27;50.10;;;25.63;;
30874;SDS011;17581;43.222;27.924;2023-06-01T03:47:52;86.82;;;27.63;;
30874;SDS011;17581;43.222;27.924;2023-06-01T03:50:18;55.55;;;28.30;;
30874;SDS011;17581;43.222;27.924;2023-06-01T03:52:44;71.88;;;30.55;;
30874;SDS011;17581;43.222;27.924;2023-06-01T03:55:10;70.95;;;33.05;;
30874;SDS011;17581;43.222;27.924;2023-06-01T03:57:38;66.57;;;37.28;;
30874;SDS011;17581;43.222;27.924;2023-06-01T04:00:04;66.90;;;37.20;;
30874;SDS011;17581;43.222;27.924;2023-06-01T04:02:44;61.47;;;35.45;;
30874;SDS011;17581;43.222;27.924;2023-06-01T04:05:11;61.53;;;35.08;;
30874;SDS011;17581;43.222;27.924;2023-06-01T04:07:42;52.10;;;32.72;;
30874;SDS011;17581;43.222;27.924;2023-06-01T04:10:12;69.13;;;33.35;;
30874;SDS011;17581;43.222;27.924;2023-06-01T04:12:39;61.08;;;32.60;;
30874;SDS011;17581;43.222;27.924;2023-06-01T04:15:11;58.83;;;33.75;;
30874;SDS011;17581;43.222;27.924;2023-06-01T04:17:38;63.58;;;32.17;;
30874;SDS011;17581;43.222;27.924;2023-06-01T04:20:05;96.90;;;34.03;;
30874;SDS011;17581;43.222;27.924;2023-06-01T04:22:34;63.53;;;31.88;;
30874;SDS011;17581;43.222;27.924;2023-06-01T04:25:00;83.80;;;31.35;;
30874;SDS011;17581;43.222;27.924;2023-06-01T04:27:26;69.95;;;31.63;;
30874;SDS011;17581;43.222;27.924;2023-06-01T04:29:52;104.97;;;33.45;;
30874;SDS011;17581;43.222;27.924;2023-06-01T04:32:18;53.65;;;29.63;;
30874;SDS011;17581;43.222;27.924;2023-06-01T04:34:49;65.43;;;30.65;;
30874;SDS011;17581;43.222;27.924;2023-06-01T04:37:15;52.63;;;29.55;;
30874;SDS011;17581;43.222;27.924;2023-06-01T04:39:44;49.08;;;27.42;;
30874;SDS011;17581;43.222;27.924;2023-06-01T04:42:14;105.05;;;32.85;;
30874;SDS011;17581;43.222;27.924;2023-06-01T04:44:42;59.50;;;27.15;;
30874;SDS011;17581;43.222;27.924;2023-06-01T04:47:08;50.78;;;24.63;;
30874;SDS011;17581;43.222;27.924;2023-06-01T04:49:33;53.85;;;26.00;;
30874;SDS011;17581;43.222;27.924;2023-06-01T04:51:59;81.68;;;27.48;;
30874;SDS011;17581;43.222;27.924;2023-06-01T04:54:25;54.42;;;24.23;;
30874;SDS011;17581;43.222;27.924;2023-06-01T04:56:51;46.58;;;25.05;;
30874;SDS011;17581;43.222;27.924;2023-06-01T04:59:16;67.03;;;25.00;;
30874;SDS011;17581;43.222;27.924;2023-06-01T05:01:42;41.75;;;23.73;;
30874;SDS011;17581;43.222;27.924;2023-06-01T05:04:07;66.47;;;23.52;;
30874;SDS011;17581;43.222;27.924;2023-06-01T05:06:33;36.47;;;20.80;;
30874;SDS011;17581;43.222;27.924;2023-06-01T05:08:59;48.25;;;21.45;;
30874;SDS011;17581;43.222;27.924;2023-06-01T05:11:25;57.05;;;21.67;;
30874;SDS011;17581;43.222;27.924;2023-06-01T05:13:50;54.63;;;17.83;;
30874;SDS011;17581;43.222;27.924;2023-06-01T05:16:17;45.38;;;18.55;;
30874;SDS011;17581;43.222;27.924;2023-06-01T05:18:43;39.40;;;17.67;;
30874;SDS011;17581;43.222;27.924;2023-06-01T05:21:08;56.00;;;19.23;;
30874;SDS011;17581;43.222;27.924;2023-06-01T05:23:33;50.53;;;19.02;;
30874;SDS011;17581;43.222;27.924;2023-06-01T05:25:59;56.30;;;18.23;;
30874;SDS011;17581;43.222;27.924;2023-06-01T05:28:28;45.80;;;19.52;;
30874;SDS011;17581;43.222;27.924;2023-06-01T05:30:57;52.80;;;19.20;;
30874;SDS011;17581;43.222;27.924;2023-06-01T05:33:23;145.60;;;27.20;;
30874;SDS011;17581;43.222;27.924;2023-06-01T05:35:49;47.88;;;19.00;;
30874;SDS011;17581;43.222;27.924;2023-06-01T05:38:14;80.65;;;18.58;;
30874;SDS011;17581;43.222;27.924;2023-06-01T05:40:40;46.53;;;18.45;;
30874;SDS011;17581;43.222;27.924;2023-06-01T05:43:06;57.85;;;18.70;;
30874;SDS011;17581;43.222;27.924;2023-06-01T05:45:38;56.03;;;19.38;;
30874;SDS011;17581;43.222;27.924;2023-06-01T05:48:04;43.72;;;20.05;;
30874;SDS011;17581;43.222;27.924;2023-06-01T05:50:29;38.25;;;18.27;;
30874;SDS011;17581;43.222;27.924;2023-06-01T05:52:55;44.42;;;18.70;;
30874;SDS011;17581;43.222;27.924;2023-06-01T05:55:20;47.10;;;17.48;;
30874;SDS011;17581;43.222;27.924;2023-06-01T05:57:46;63.60;;;21.23;;
30874;SDS011;17581;43.222;27.924;2023-06-01T06:00:12;37.42;;;18.98;;
30874;SDS011;17581;43.222;27.924;2023-06-01T06:02:38;45.80;;;18.75;;
30874;SDS011;17581;43.222;27.924;2023-06-01T06:05:04;42.97;;;18.95;;
30874;SDS011;17581;43.222;27.924;2023-06-01T06:07:31;51.10;;;17.60;;
30874;SDS011;17581;43.222;27.924;2023-06-01T06:09:56;55.13;;;19.58;;
30874;SDS011;17581;43.222;27.924;2023-06-01T06:12:22;44.80;;;18.92;;
30874;SDS011;17581;43.222;27.924;2023-06-01T06:14:47;34.67;;;17.98;;
30874;SDS011;17581;43.222;27.924;2023-06-01T06:17:14;48.85;;;17.17;;
30874;SDS011;17581;43.222;27.924;2023-06-01T06:19:40;45.05;;;16.45;;
30874;SDS011;17581;43.222;27.924;2023-06-01T06:22:08;49.72;;;15.65;;
30874;SDS011;17581;43.222;27.924;2023-06-01T06:24:34;45.00;;;16.33;;
30874;SDS011;17581;43.222;27.924;2023-06-01T06:26:59;45.92;;;16.17;;
30874;SDS011;17581;43.222;27.924;2023-06-01T06:29:25;45.88;;;15.32;;
30874;SDS011;17581;43.222;27.924;2023-06-01T06:31:50;36.95;;;16.58;;
30874;SDS011;17581;43.222;27.924;2023-06-01T06:34:16;52.97;;;17.48;;
30874;SDS011;17581;43.222;27.924;2023-06-01T06:36:41;48.75;;;18.42;;
30874;SDS011;17581;43.222;27.924;2023-06-01T06:39:07;34.47;;;16.58;;
30874;SDS011;17581;43.222;27.924;2023-06-01T06:41:32;37.10;;;17.23;;
30874;SDS011;17581;43.222;27.924;2023-06-01T06:43:57;49.67;;;18.60;;
30874;SDS011;17581;43.222;27.924;2023-06-01T06:46:23;43.03;;;21.58;;
30874;SDS011;17581;43.222;27.924;2023-06-01T06:48:48;33.63;;;18.10;;
30874;SDS011;17581;43.222;27.924;2023-06-01T06:51:14;32.20;;;17.77;;
30874;SDS011;17581;43.222;27.924;2023-06-01T06:53:39;38.95;;;19.70;;
30874;SDS011;17581;43.222;27.924;2023-06-01T06:56:05;56.88;;;19.80;;
30874;SDS011;17581;43.222;27.924;2023-06-01T06:58:31;48.20;;;21.27;;
30874;SDS011;17581;43.222;27.924;2023-06-01T07:00:56;47.95;;;22.38;;
30874;SDS011;17581;43.222;27.924;2023-06-01T07:03:21;45.28;;;22.27;;
30874;SDS011;17581;43.222;27.924;2023-06-01T07:05:47;60.47;;;22.10;;
30874;SDS011;17581;43.222;27.924;2023-06-01T07:08:13;55.13;;;21.13;;
30874;SDS011;17581;43.222;27.924;2023-06-01T07:10:39;44.33;;;21.38;;
30874;SDS011;17581;43.222;27.924;2023-06-01T07:13:05;42.50;;;21.02;;
30874;SDS011;17581;43.222;27.924;2023-06-01T07:15:30;41.45;;;18.73;;
30874;SDS011;17581;43.222;27.924;2023-06-01T07:17:55;51.30;;;20.05;;
30874;SDS011;17581;43.222;27.924;2023-06-01T07:20:21;45.25;;;18.40;;
30874;SDS011;17581;43.222;27.924;2023-06-01T07:22:46;41.95;;;17.67;;
30874;SDS011;17581;43.222;27.924;2023-06-01T07:25:12;38.00;;;18.02;;
30874;SDS011;17581;43.222;27.924;2023-06-01T07:27:38;44.15;;;14.88;;
30874;SDS011;17581;43.222;27.924;2023-06-01T07:30:08;27.95;;;12.65;;
30874;SDS011;17581;43.222;27.924;2023-06-01T07:32:35;21.77;;;11.07;;
30874;SDS011;17581;43.222;27.924;2023-06-01T07:35:01;30.75;;;11.43;;
30874;SDS011;17581;43.222;27.924;2023-06-01T07:37:26;34.08;;;12.73;;
30874;SDS011;17581;43.222;27.924;2023-06-01T07:39:55;36.40;;;12.35;;
30874;SDS011;17581;43.222;27.924;2023-06-01T07:42:21;34.00;;;15.02;;
30874;SDS011;17581;43.222;27.924;2023-06-01T07:44:47;31.23;;;13.13;;
30874;SDS011;17581;43.222;27.924;2023-06-01T07:47:13;24.80;;;10.35;;
30874;SDS011;17581;43.222;27.924;2023-06-01T07:49:38;26.58;;;8.77;;
30874;SDS011;17581;43.222;27.924;2023-06-01T07:52:05;27.00;;;8.10;;
30874;SDS011;17581;43.222;27.924;2023-06-01T07:54:30;22.23;;;9.73;;
30874;SDS011;17581;43.222;27.924;2023-06-01T07:56:56;29.38;;;11.70;;
30874;SDS011;17581;43.222;27.924;2023-06-01T07:59:22;25.38;;;8.80;;
30874;SDS011;17581;43.222;27.924;2023-06-01T08:01:53;21.65;;;8.45;;
30874;SDS011;17581;43.222;27.924;2023-06-01T08:04:19;15.18;;;6.60;;
30874;SDS011;17581;43.222;27.924;2023-06-01T08:06:47;19.17;;;7.30;;
30874;SDS011;17581;43.222;27.924;2023-06-01T08:09:21;19.75;;;5.88;;
30874;SDS011;17581;43.222;27.924;2023-06-01T08:11:49;19.10;;;5.53;;
30874;SDS011;17581;43.222;27.924;2023-06-01T08:14:15;17.20;;;6.20;;
30874;SDS011;17581;43.222;27.924;2023-06-01T08:16:42;18.25;;;6.65;;
30874;SDS011;17581;43.222;27.924;2023-06-01T08:19:08;23.38;;;6.00;;
30874;SDS011;17581;43.222;27.924;2023-06-01T08:21:33;14.40;;;4.88;;
30874;SDS011;17581;43.222;27.924;2023-06-01T08:24:00;12.60;;;5.00;;
30874;SDS011;17581;43.222;27.924;2023-06-01T08:26:27;11.90;;;4.68;;
30874;SDS011;17581;43.222;27.924;2023-06-01T08:28:53;9.60;;;5.22;;
30874;SDS011;17581;43.222;27.924;2023-06-01T08:31:22;15.68;;;5.20;;
30874;SDS011;17581;43.222;27.924;2023-06-01T08:33:49;26.35;;;6.55;;
30874;SDS011;17581;43.222;27.924;2023-06-01T08:36:18;11.93;;;5.22;;
30874;SDS011;17581;43.222;27.924;2023-06-01T08:38:45;96.90;;;11.90;;
30874;SDS011;17581;43.222;27.924;2023-06-01T08:44:03;26.00;;;7.28;;
30874;SDS011;17581;43.222;27.924;2023-06-01T08:46:32;18.30;;;7.53;;
30874;SDS011;17581;43.222;27.924;2023-06-01T08:48:59;27.55;;;8.15;;
30874;SDS011;17581;43.222;27.924;2023-06-01T08:51:25;18.15;;;7.90;;
30874;SDS011;17581;43.222;27.924;2023-06-01T08:53:51;29.58;;;8.38;;
30874;SDS011;17581;43.222;27.924;2023-06-01T08:56:19;50.05;;;9.38;;
30874;SDS011;17581;43.222;27.924;2023-06-01T08:58:47;31.30;;;6.97;;
30874;SDS011;17581;43.222;27.924;2023-06-01T09:01:18;43.78;;;9.73;;
30874;SDS011;17581;43.222;27.924;2023-06-01T09:03:46;21.35;;;7.75;;
30874;SDS011;17581;43.222;27.924;2023-06-01T09:06:15;25.42;;;6.45;;
30874;SDS011;17581;43.222;27.924;2023-06-01T09:08:41;26.80;;;8.65;;
30874;SDS011;17581;43.222;27.924;2023-06-01T09:11:07;29.02;;;7.70;;
30874;SDS011;17581;43.222;27.924;2023-06-01T09:13:35;46.03;;;8.93;;
30874;SDS011;17581;43.222;27.924;2023-06-01T09:16:02;31.48;;;8.38;;
30874;SDS011;17581;43.222;27.924;2023-06-01T09:18:28;66.60;;;11.40;;
30874;SDS011;17581;43.222;27.924;2023-06-01T09:20:54;20.92;;;7.28;;
30874;SDS011;17581;43.222;27.924;2023-06-01T09:23:25;62.85;;;10.30;;
30874;SDS011;17581;43.222;27.924;2023-06-01T09:26:04;74.30;;;9.27;;
30874;SDS011;17581;43.222;27.924;2023-06-01T09:28:51;45.15;;;8.93;;
30874;SDS011;17581;43.222;27.924;2023-06-01T09:34:07;21.80;;;6.18;;
30874;SDS011;17581;43.222;27.924;2023-06-01T09:36:36;26.52;;;6.25;;
30874;SDS011;17581;43.222;27.924;2023-06-01T09:39:06;35.85;;;6.43;;
30874;SDS011;17581;43.222;27.924;2023-06-01T09:44:13;28.33;;;7.55;;
30874;SDS011;17581;43.222;27.924;2023-06-01T09:46:59;29.50;;;7.15;;
30874;SDS011;17581;43.222;27.924;2023-06-01T09:49:27;18.27;;;6.72;;
30874;SDS011;17581;43.222;27.924;2023-06-01T09:54:29;28.67;;;5.53;;
30874;SDS011;17581;43.222;27.924;2023-06-01T09:56:56;32.05;;;9.27;;
30874;SDS011;17581;43.222;27.924;2023-06-01T09:59:22;28.10;;;6.78;;
30874;SDS011;17581;43.222;27.924;2023-06-01T10:01:50;20.08;;;6.18;;
30874;SDS011;17581;43.222;27.924;2023-06-01T10:04:19;21.40;;;6.40;;
30874;SDS011;17581;43.222;27.924;2023-06-01T10:06:47;34.65;;;7.70;;
30874;SDS011;17581;43.222;27.924;2023-06-01T10:09:16;22.67;;;6.13;;
30874;SDS011;17581;43.222;27.924;2023-06-01T10:11:45;47.53;;;7.57;;
30874;SDS011;17581;43.222;27.924;2023-06-01T10:14:11;31.65;;;8.80;;
30874;SDS011;17581;43.222;27.924;2023-06-01T10:16:38;25.13;;;6.40;;
30874;SDS011;17581;43.222;27.924;2023-06-01T10:19:06;48.17;;;9.50;;
30874;SDS011;17581;43.222;27.924;2023-06-01T10:21:32;76.00;;;8.85;;
30874;SDS011;17581;43.222;27.924;2023-06-01T10:23:58;31.05;;;7.60;;
30874;SDS011;17581;43.222;27.924;2023-06-01T10:26:24;25.90;;;6.47;;
30874;SDS011;17581;43.222;27.924;2023-06-01T10:28:52;16.63;;;5.88;;
30874;SDS011;17581;43.222;27.924;2023-06-01T10:31:39;15.32;;;6.28;;
30874;SDS011;17581;43.222;27.924;2023-06-01T10:34:07;29.70;;;5.78;;
30874;SDS011;17581;43.222;27.924;2023-06-01T10:39:29;27.13;;;6.28;;
30874;SDS011;17581;43.222;27.924;2023-06-01T10:41:56;22.08;;;6.57;;
30874;SDS011;17581;43.222;27.924;2023-06-01T10:47:19;18.25;;;6.15;;
30874;SDS011;17581;43.222;27.924;2023-06-01T10:57:39;19.38;;;7.30;;
30874;SDS011;17581;43.222;27.924;2023-06-01T11:00:16;13.35;;;4.68;;
30874;SDS011;17581;43.222;27.924;2023-06-01T11:03:12;28.08;;;5.72;;
30874;SDS011;17581;43.222;27.924;2023-06-01T11:08:04;12.23;;;4.65;;
30874;SDS011;17581;43.222;27.924;2023-06-01T11:13:22;45.90;;;7.57;;
30874;SDS011;17581;43.222;27.924;2023-06-01T11:21:21;25.25;;;5.28;;
30874;SDS011;17581;43.222;27.924;2023-06-01T11:23:47;21.80;;;5.30;;
30874;SDS011;17581;43.222;27.924;2023-06-01T11:26:14;13.70;;;4.80;;
30874;SDS011;17581;43.222;27.924;2023-06-01T11:28:41;19.65;;;5.50;;
30874;SDS011;17581;43.222;27.924;2023-06-01T11:31:08;17.08;;;4.88;;
30874;SDS011;17581;43.222;27.924;2023-06-01T11:33:37;10.50;;;4.40;;
30874;SDS011;17581;43.222;27.924;2023-06-01T11:36:05;24.65;;;6.13;;
30874;SDS011;17581;43.222;27.924;2023-06-01T11:38:40;38.75;;;8.00;;
30874;SDS011;17581;43.222;27.924;2023-06-01T11:41:06;13.80;;;4.95;;
30874;SDS011;17581;43.222;27.924;2023-06-01T11:43:33;11.93;;;4.97;;
30874;SDS011;17581;43.222;27.924;2023-06-01T11:46:03;23.95;;;4.93;;
30874;SDS011;17581;43.222;27.924;2023-06-01T11:48:29;28.05;;;5.88;;
30874;SDS011;17581;43.222;27.924;2023-06-01T11:50:56;21.00;;;5.63;;
30874;SDS011;17581;43.222;27.924;2023-06-01T11:53:24;28.58;;;4.90;;
30874;SDS011;17581;43.222;27.924;2023-06-01T11:58:26;14.23;;;4.68;;
30874;SDS011;17581;43.222;27.924;2023-06-01T12:00:53;10.40;;;3.50;;
30874;SDS011;17581;43.222;27.924;2023-06-01T12:03:19;21.08;;;5.38;;
30874;SDS011;17581;43.222;27.924;2023-06-01T12:05:45;17.15;;;4.57;;
30874;SDS011;17581;43.222;27.924;2023-06-01T12:08:20;17.58;;;5.22;;
30874;SDS011;17581;43.222;27.924;2023-06-01T12:10:48;24.75;;;6.28;;
30874;SDS011;17581;43.222;27.924;2023-06-01T12:13:16;21.08;;;5.28;;
30874;SDS011;17581;43.222;27.924;2023-06-01T12:15:42;28.30;;;4.70;;
30874;SDS011;17581;43.222;27.924;2023-06-01T12:18:08;10.40;;;4.85;;
30874;SDS011;17581;43.222;27.924;2023-06-01T12:23:02;22.70;;;4.85;;
30874;SDS011;17581;43.222;27.924;2023-06-01T12:25:56;22.15;;;4.70;;
30874;SDS011;17581;43.222;27.924;2023-06-01T12:28:24;23.05;;;7.30;;
30874;SDS011;17581;43.222;27.924;2023-06-01T12:31:09;13.10;;;4.45;;
30874;SDS011;17581;43.222;27.924;2023-06-01T12:33:37;20.52;;;4.78;;
30874;SDS011;17581;43.222;27.924;2023-06-01T12:36:03;10.38;;;4.05;;
30874;SDS011;17581;43.222;27.924;2023-06-01T12:38:36;27.58;;;6.50;;
30874;SDS011;17581;43.222;27.924;2023-06-01T12:41:15;18.60;;;4.20;;
30874;SDS011;17581;43.222;27.924;2023-06-01T12:43:46;16.05;;;6.80;;
30874;SDS011;17581;43.222;27.924;2023-06-01T12:48:45;39.17;;;11.27;;
30874;SDS011;17581;43.222;27.924;2023-06-01T12:51:12;48.88;;;16.27;;
30874;SDS011;17581;43.222;27.924;2023-06-01T12:53:38;47.08;;;9.35;;
30874;SDS011;17581;43.222;27.924;2023-06-01T12:56:04;20.77;;;5.63;;
30874;SDS011;17581;43.222;27.924;2023-06-01T12:58:31;14.20;;;4.75;;
30874;SDS011;17581;43.222;27.924;2023-06-01T13:00:57;49.60;;;7.40;;
30874;SDS011;17581;43.222;27.924;2023-06-01T13:03:22;42.35;;;11.75;;
30874;SDS011;17581;43.222;27.924;2023-06-01T13:05:49;30.65;;;8.13;;
30874;SDS011;17581;43.222;27.924;2023-06-01T13:08:16;37.28;;;6.85;;
30874;SDS011;17581;43.222;27.924;2023-06-01T13:10:42;33.05;;;5.30;;
30874;SDS011;17581;43.222;27.924;2023-06-01T13:13:08;8.90;;;4.38;;
30874;SDS011;17581;43.222;27.924;2023-06-01T13:15:34;16.33;;;4.95;;
30874;SDS011;17581;43.222;27.924;2023-06-01T13:18:00;23.05;;;7.57;;
30874;SDS011;17581;43.222;27.924;2023-06-01T13:20:25;42.97;;;9.52;;
30874;SDS011;17581;43.222;27.924;2023-06-01T13:22:51;35.13;;;9.60;;
30874;SDS011;17581;43.222;27.924;2023-06-01T13:25:18;24.25;;;5.60;;
30874;SDS011;17581;43.222;27.924;2023-06-01T13:27:44;20.90;;;5.38;;
30874;SDS011;17581;43.222;27.924;2023-06-01T13:30:10;49.78;;;6.68;;
30874;SDS011;17581;43.222;27.924;2023-06-01T13:32:37;36.40;;;5.43;;
30874;SDS011;17581;43.222;27.924;2023-06-01T13:35:03;11.55;;;5.05;;
30874;SDS011;17581;43.222;27.924;2023-06-01T13:37:28;18.55;;;5.10;;
30874;SDS011;17581;43.222;27.924;2023-06-01T13:39:54;29.77;;;6.97;;
30874;SDS011;17581;43.222;27.924;2023-06-01T13:42:20;35.13;;;5.10;;
30874;SDS011;17581;43.222;27.924;2023-06-01T13:44:45;14.32;;;4.30;;
30874;SDS011;17581;43.222;27.924;2023-06-01T13:47:14;20.88;;;4.47;;
30874;SDS011;17581;43.222;27.924;2023-06-01T13:49:41;31.00;;;5.18;;
30874;SDS011;17581;43.222;27.924;2023-06-01T13:52:07;20.67;;;5.20;;
30874;SDS011;17581;43.222;27.924;2023-06-01T13:54:33;9.75;;;4.60;;
30874;SDS011;17581;43.222;27.924;2023-06-01T13:56:59;29.45;;;6.28;;
30874;SDS011;17581;43.222;27.924;2023-06-01T13:59:24;20.10;;;5.78;;
30874;SDS011;17581;43.222;27.924;2023-06-01T14:01:50;13.60;;;5.22;;
30874;SDS011;17581;43.222;27.924;2023-06-01T14:04:16;19.55;;;4.65;;
30874;SDS011;17581;43.222;27.924;2023-06-01T14:06:42;20.45;;;4.60;;
30874;SDS011;17581;43.222;27.924;2023-06-01T14:09:07;15.57;;;4.78;;
30874;SDS011;17581;43.222;27.924;2023-06-01T14:11:34;28.23;;;4.68;;
30874;SDS011;17581;43.222;27.924;2023-06-01T14:13:59;12.93;;;4.70;;
30874;SDS011;17581;43.222;27.924;2023-06-01T14:16:25;16.48;;;5.15;;
30874;SDS011;17581;43.222;27.924;2023-06-01T14:18:50;26.33;;;4.65;;
30874;SDS011;17581;43.222;27.924;2023-06-01T14:21:17;13.63;;;4.72;;
30874;SDS011;17581;43.222;27.924;2023-06-01T14:24:04;9.50;;;4.05;;
30874;SDS011;17581;43.222;27.924;2023-06-01T14:26:30;41.78;;;8.23;;
30874;SDS011;17581;43.222;27.924;2023-06-01T14:28:55;16.17;;;4.68;;
30874;SDS011;17581;43.222;27.924;2023-06-01T14:31:21;67.45;;;7.93;;
30874;SDS011;17581;43.222;27.924;2023-06-01T14:33:47;23.50;;;5.05;;
30874;SDS011;17581;43.222;27.924;2023-06-01T14:36:13;18.48;;;4.88;;
30874;SDS011;17581;43.222;27.924;2023-06-01T14:38:39;14.63;;;4.68;;
30874;SDS011;17581;43.222;27.924;2023-06-01T14:41:05;23.30;;;6.22;;
30874;SDS011;17581;43.222;27.924;2023-06-01T14:43:31;19.15;;;5.95;;
30874;SDS011;17581;43.222;27.924;2023-06-01T14:45:57;17.77;;;4.60;;
30874;SDS011;17581;43.222;27.924;2023-06-01T14:48:23;21.60;;;5.13;;
30874;SDS011;17581;43.222;27.924;2023-06-01T14:50:48;14.73;;;4.38;;
30874;SDS011;17581;43.222;27.924;2023-06-01T14:53:14;9.20;;;4.10;;
30874;SDS011;17581;43.222;27.924;2023-06-01T14:55:42;20.83;;;5.97;;
30874;SDS011;17581;43.222;27.924;2023-06-01T14:58:08;24.85;;;6.10;;
30874;SDS011;17581;43.222;27.924;2023-06-01T15:00:35;24.73;;;5.97;;
30874;SDS011;17581;43.222;27.924;2023-06-01T15:03:01;13.90;;;5.43;;
30874;SDS011;17581;43.222;27.924;2023-06-01T15:05:27;23.52;;;5.43;;
30874;SDS011;17581;43.222;27.924;2023-06-01T15:07:53;27.02;;;5.72;;
30874;SDS011;17581;43.222;27.924;2023-06-01T15:10:18;19.10;;;5.35;;